Raleigh, NC (27676)

6:40 AM EDT on September 03, 2015 (GMT -0400)
Raleigh Downtown | | Change Station
CLOSE
Current Station
Personal Weather Station
Location: Raleigh, NC
Elevation: 351 ft
Nearby Weather Stations

Elev 351 ft 35.78 °N, 78.64 °W | Updated 14 seconds ago

Fog
Fog
70.0 °F
Feels Like 70.0 °F
N
0.0
Wind Variable Wind from NNW
Gusts 2.0 mph

Today
High -- | Low -- °F
--% Chance of Precip.
Yesterday
High -- | Low -- °F
Precip. -- in
6:47 AM 7:39 PM
Waning Gibbous, 71% visible
Pressure 29.96 in
Visibility 0.2 miles
Clouds Mostly Cloudy 100 ft
Mostly Cloudy 11000 ft
Mostly Cloudy 25000 ft
Dew Point 68 °F
Humidity 95%
Rainfall 0.58 in
Snow Depth Not available.
UV 0 out of 12
Pollen 8.50 out of 12
Air Quality Not available.
Flu Activity Not available.
SPECI KRDU 031021Z 00000KT 1/4SM R23R/1200V1400FT FG BKN001 BKN110 BKN250 21/20 A2996 RMK AO2 SFC VIS 1/2 $
Pressure 29.96 in
Visibility 0.2 miles
Clouds Mostly Cloudy 100 ft
Mostly Cloudy 11000 ft
Mostly Cloudy 25000 ft
Dew Point 68 °F
Humidity 95%
Rainfall 0.58 in
Snow Depth Not available.
UV 0 out of 12
Pollen 8.50 out of 12
Air Quality Not available.
Flu Activity Not available.
SPECI KRDU 031021Z 00000KT 1/4SM R23R/1200V1400FT FG BKN001 BKN110 BKN250 21/20 A2996 RMK AO2 SFC VIS 1/2 $

10-Day Weather Forecast

×

Almanac

Astronomy

Sep. 03, 2015 Rise Set
Actual Time
Civil Twilight
Nautical Twilight
Astronomical Twilight
Moon
Length of Visible Light
Length of Day
Tomorrow will be .
, % of the Moon is Illuminated

Today's Extremes

State Highs State Lows

Community

WunderPhotos

Upload Photos

1,851,933 photos uploaded!

WunderBlogs® & News

Nearby

Air Quality

  Air Quality AQ Index Pollutant
Not available.

Snow Depth

Station Depth Elevation

Earthquake Activity

City Distance Mag. Time & Date
Minimum magnitude displayed is 2.5.

Coastal Water Temperatures

Place Temperature

Stations

Nearby Weather Stations

Station Location Temp. Windchill Dew Point Humidity Wind Precip. Elev Updated Type